Orbital elements of FENGYUN 1C DEB
| Launched | 9 May 1999 |
| Flight ended | – |
| Launch site | Taiyuan Space Center, PRC |
| Owner | People's Republic of China |
| NORAD ID | 29881 |
| Date fetched |
Epoch osculation |
Inc. [°] |
Ecc. | RA asc node [hr] |
Arg Peri. [°] |
Mean anom [°] |
Mean motion [rev/day] |
Abs. mag |
| Date fetched |
Epoch osculation |
Inc. [°] |
Ecc. | RA asc node [hr] |
Arg Peri. [°] |
Mean anom [°] |
Mean motion [rev/day] |
Abs. mag |
| 2026 May 08 17:57 | 2026 May 05 08:11:00 | 98.7311 | 0.02931 | 5.8110 | 57.7674 | 97.5696 | 13.60145 | – |
| 2026 May 07 17:58 | 2026 May 05 08:11:00 | 98.7311 | 0.02931 | 5.8110 | 57.7674 | 97.5696 | 13.60145 | – |
| 2026 May 06 17:57 | 2026 May 05 08:11:00 | 98.7311 | 0.02931 | 5.8110 | 57.7674 | 97.5696 | 13.60145 | – |
| 2026 May 05 17:57 | 2026 May 05 08:11:00 | 98.7311 | 0.02931 | 5.8110 | 57.7674 | 97.5696 | 13.60145 | – |
| 2026 May 04 17:57 | 2026 Apr 30 08:10:11 | 98.7307 | 0.02930 | 5.5130 | 70.6966 | 97.5696 | 13.60145 | – |
| 2026 May 03 17:57 | 2026 Apr 30 08:10:11 | 98.7307 | 0.02930 | 5.5130 | 70.6966 | 97.5696 | 13.60145 | – |
| 2026 May 02 17:57 | 2026 Apr 30 08:10:11 | 98.7307 | 0.02930 | 5.5130 | 70.6966 | 97.5696 | 13.60145 | – |
| 2026 May 01 17:56 | 2026 Apr 30 08:10:11 | 98.7307 | 0.02930 | 5.5130 | 70.6966 | 97.5696 | 13.60145 | – |
| 2026 Apr 30 17:56 | 2026 Apr 30 08:10:11 | 98.7307 | 0.02930 | 5.5130 | 70.6966 | 97.5696 | 13.60145 | – |
| 2026 Apr 29 17:57 | 2026 Apr 24 12:34:32 | 98.7304 | 0.02927 | 5.1664 | 85.7530 | 97.5696 | 13.60145 | – |
| 2026 Apr 28 17:56 | 2026 Apr 24 12:34:32 | 98.7304 | 0.02927 | 5.1664 | 85.7530 | 97.5696 | 13.60145 | – |
| 2026 Apr 27 17:58 | 2026 Apr 24 12:34:32 | 98.7304 | 0.02927 | 5.1664 | 85.7530 | 97.5696 | 13.60145 | – |
| 2026 Apr 26 17:58 | 2026 Apr 24 12:34:32 | 98.7304 | 0.02927 | 5.1664 | 85.7530 | 97.5696 | 13.60145 | – |
| 2026 Apr 25 17:58 | 2026 Apr 24 12:34:32 | 98.7304 | 0.02927 | 5.1664 | 85.7530 | 97.5696 | 13.60145 | – |
| 2026 Apr 24 17:59 | 2026 Apr 24 12:34:32 | 98.7304 | 0.02927 | 5.1664 | 85.7530 | 97.5696 | 13.60145 | – |
| 2026 Apr 23 17:57 | 2026 Apr 17 09:22:16 | 98.7306 | 0.02921 | 4.7414 | 104.2640 | 97.5696 | 13.60145 | – |
| 2026 Apr 22 17:57 | 2026 Apr 17 09:22:16 | 98.7306 | 0.02921 | 4.7414 | 104.2640 | 97.5696 | 13.60145 | – |
| 2026 Apr 21 17:57 | 2026 Apr 17 09:22:16 | 98.7306 | 0.02921 | 4.7414 | 104.2640 | 97.5696 | 13.60145 | – |
| 2026 Apr 20 17:57 | 2026 Apr 17 09:22:16 | 98.7306 | 0.02921 | 4.7414 | 104.2640 | 97.5696 | 13.60145 | – |
| 2026 Apr 19 17:58 | 2026 Apr 17 09:22:16 | 98.7306 | 0.02921 | 4.7414 | 104.2640 | 97.5696 | 13.60145 | – |
| 2026 Apr 18 17:56 | 2026 Apr 12 10:56:38 | 98.7298 | 0.02916 | 4.4474 | 117.0945 | 97.5696 | 13.60145 | – |
| 2026 Apr 16 17:57 | 2026 Apr 12 10:56:38 | 98.7298 | 0.02916 | 4.4474 | 117.0945 | 97.5696 | 13.60145 | – |
| 2026 Apr 14 17:57 | 2026 Apr 12 10:56:38 | 98.7298 | 0.02916 | 4.4474 | 117.0945 | 97.5696 | 13.60145 | – |
| 2026 Apr 13 17:57 | 2026 Apr 12 10:56:38 | 98.7298 | 0.02916 | 4.4474 | 117.0945 | 97.5696 | 13.60145 | – |
| 2026 Apr 12 17:57 | 2026 Apr 08 08:15:05 | 98.7296 | 0.02912 | 4.2024 | 127.8069 | 97.5696 | 13.60145 | – |
| 2026 Apr 11 17:57 | 2026 Apr 08 08:15:05 | 98.7296 | 0.02912 | 4.2024 | 127.8069 | 97.5696 | 13.60145 | – |